createdAt,value
2019-03-29T00:01:04.834Z,66.96
2019-03-29T00:03:38.139Z,67.40
2019-03-29T00:06:17.032Z,67.53
2019-03-29T00:08:49.245Z,66.74
2019-03-29T00:11:20.546Z,67.52
2019-03-29T00:13:57.049Z,67.53
2019-03-29T00:16:28.249Z,67.67
2019-03-29T00:19:06.114Z,67.67
2019-03-29T00:21:37.390Z,67.78
2019-03-29T00:24:11.877Z,68.16
2019-03-29T00:26:48.218Z,68.23
2019-03-29T00:29:25.908Z,68.36
2019-03-29T00:32:02.383Z,68.18
2019-03-29T00:34:38.792Z,68.70
2019-03-29T00:37:23.552Z,69.09
2019-03-29T00:40:00.361Z,68.72
2019-03-29T00:42:45.646Z,69.59
2019-03-29T00:45:16.929Z,69.16
2019-03-29T00:47:48.254Z,69.68
2019-03-29T00:50:20.597Z,69.29
2019-03-29T00:52:51.812Z,69.29
2019-03-29T00:55:22.948Z,69.65
2019-03-29T00:57:56.924Z,69.30
2019-03-29T01:00:31.246Z,69.71
2019-03-29T01:03:06.505Z,69.56
2019-03-29T01:05:37.803Z,69.68
2019-03-29T01:08:10.400Z,69.79
2019-03-29T01:10:42.062Z,69.49
2019-03-29T01:13:13.293Z,69.13
2019-03-29T01:15:44.406Z,69.53
2019-03-29T01:18:15.732Z,69.86
2019-03-29T01:20:47.977Z,70.15
2019-03-29T01:23:19.344Z,69.47
2019-03-29T01:25:50.581Z,69.48
2019-03-29T01:28:21.841Z,69.44
2019-03-29T01:30:53.153Z,70.10
2019-03-29T01:33:28.431Z,69.98
2019-03-29T01:36:17.189Z,70.42
2019-03-29T01:38:51.108Z,70.56
2019-03-29T01:41:22.443Z,70.39
2019-03-29T01:43:55.628Z,70.40
2019-03-29T01:46:26.954Z,71.16
2019-03-29T01:49:18.674Z,70.59
2019-03-29T01:51:49.936Z,70.76
2019-03-29T01:54:48.093Z,70.43
2019-03-29T01:57:24.197Z,71.07
2019-03-29T01:59:55.472Z,71.00
2019-03-29T02:02:27.755Z,70.83
2019-03-29T02:04:59.056Z,70.39
2019-03-29T02:07:30.371Z,69.32
2019-03-29T02:10:01.675Z,68.59
2019-03-29T02:12:33.329Z,67.65
2019-03-29T02:15:06.009Z,67.34
2019-03-29T02:17:37.440Z,67.27
2019-03-29T02:20:09.662Z,66.65
2019-03-29T02:22:49.993Z,66.74
2019-03-29T02:25:21.246Z,66.96
2019-03-29T02:27:53.018Z,67.09
2019-03-29T02:30:56.180Z,66.82
2019-03-29T02:33:27.303Z,67.50
2019-03-29T02:35:58.358Z,67.28
2019-03-29T02:38:55.143Z,67.40
2019-03-29T02:41:14.422Z,67.47
2019-03-29T02:43:48.786Z,67.51
2019-03-29T02:46:19.992Z,67.76
2019-03-29T02:49:00.209Z,67.87
2019-03-29T02:51:32.722Z,67.27
2019-03-29T02:54:05.077Z,67.24
2019-03-29T02:56:49.497Z,67.56
2019-03-29T02:59:22.669Z,68.23
2019-03-29T03:01:53.816Z,67.92
2019-03-29T03:04:24.886Z,68.18
2019-03-29T03:06:56.230Z,68.70
2019-03-29T03:09:27.555Z,69.06
2019-03-29T03:12:05.490Z,70.39
2019-03-29T03:14:36.633Z,70.97
2019-03-29T03:17:07.827Z,70.44
2019-03-29T03:19:42.312Z,70.08
2019-03-29T03:22:13.588Z,70.73
2019-03-29T03:24:45.837Z,70.61
2019-03-29T03:27:16.934Z,70.54
2019-03-29T03:29:48.720Z,70.21
2019-03-29T03:32:29.284Z,70.18
2019-03-29T03:35:00.881Z,69.79
2019-03-29T03:37:32.114Z,69.99
2019-03-29T03:40:03.303Z,70.23
2019-03-29T03:42:34.517Z,70.14
2019-03-29T03:45:23.877Z,70.34
2019-03-29T03:47:55.025Z,69.90
2019-03-29T03:50:38.584Z,70.38
2019-03-29T03:53:09.933Z,70.63
2019-03-29T03:55:41.558Z,70.72
2019-03-29T03:58:13.401Z,70.74
2019-03-29T04:00:58.001Z,70.61
2019-03-29T04:03:29.250Z,70.92
2019-03-29T04:06:00.501Z,70.88
2019-03-29T04:08:31.822Z,70.79
2019-03-29T04:11:03.956Z,70.97
2019-03-29T04:13:35.167Z,70.39
2019-03-29T04:16:06.476Z,70.33
2019-03-29T04:18:41.094Z,70.57
2019-03-29T04:21:12.184Z,71.07
2019-03-29T04:23:44.704Z,71.18
2019-03-29T04:26:15.981Z,71.11
2019-03-29T04:29:03.453Z,70.89
2019-03-29T04:31:30.077Z,70.74
2019-03-29T04:34:01.323Z,70.87
2019-03-29T04:36:32.506Z,71.23
2019-03-29T04:39:05.134Z,71.47
2019-03-29T04:41:48.405Z,71.65
2019-03-29T04:44:29.715Z,71.47
2019-03-29T04:47:00.927Z,71.34
2019-03-29T04:49:32.103Z,71.44
2019-03-29T04:52:08.446Z,71.38
2019-03-29T04:54:45.578Z,71.50
2019-03-29T04:57:16.785Z,71.48
2019-03-29T04:59:48.002Z,71.63
2019-03-29T05:02:19.246Z,71.46
2019-03-29T05:04:50.417Z,71.25
2019-03-29T05:07:21.584Z,71.41
2019-03-29T05:09:56.105Z,71.85
2019-03-29T05:12:27.350Z,71.48
2019-03-29T05:14:58.535Z,71.95
2019-03-29T05:17:29.683Z,72.46
2019-03-29T05:20:00.799Z,72.41
2019-03-29T05:22:31.960Z,72.17
2019-03-29T05:25:03.151Z,72.60
2019-03-29T05:27:34.393Z,72.68
2019-03-29T05:30:06.098Z,72.13
2019-03-29T05:32:37.380Z,72.47
2019-03-29T05:35:13.580Z,72.37
2019-03-29T05:37:44.746Z,72.10
2019-03-29T05:40:15.871Z,72.28
2019-03-29T05:42:59.651Z,71.99
2019-03-29T05:45:30.762Z,71.11
2019-03-29T05:48:02.954Z,71.81
2019-03-29T05:50:36.738Z,72.05
2019-03-29T05:53:07.998Z,72.31
2019-03-29T05:55:39.284Z,71.56
2019-03-29T05:58:15.359Z,72.53
2019-03-29T06:00:49.700Z,72.30
2019-03-29T06:03:21.852Z,71.65
2019-03-29T06:05:58.557Z,71.61
2019-03-29T06:08:31.937Z,71.66
2019-03-29T06:11:03.413Z,71.76
2019-03-29T06:13:34.618Z,71.77
2019-03-29T06:16:06.345Z,70.90
2019-03-29T06:18:44.413Z,70.53
2019-03-29T06:21:15.702Z,69.77
2019-03-29T06:23:49.008Z,68.84
2019-03-29T06:26:22.290Z,68.05
2019-03-29T06:28:53.652Z,67.26
2019-03-29T06:31:24.912Z,66.86
2019-03-29T06:33:57.096Z,65.51
2019-03-29T06:36:30.745Z,64.77
2019-03-29T06:39:04.967Z,64.05
2019-03-29T06:41:41.437Z,64.11
2019-03-29T06:44:12.635Z,64.39
2019-03-29T06:46:53.779Z,64.31
2019-03-29T06:49:27.105Z,64.08
2019-03-29T06:52:08.296Z,63.88
2019-03-29T06:54:45.002Z,64.50
2019-03-29T06:57:16.191Z,63.99
2019-03-29T06:59:51.143Z,63.91
2019-03-29T07:02:23.286Z,63.99
2019-03-29T07:05:07.191Z,63.03
2019-03-29T07:07:38.453Z,63.30
2019-03-29T07:10:09.602Z,62.58
2019-03-29T07:12:40.792Z,61.84
2019-03-29T07:15:13.036Z,61.69
2019-03-29T07:17:44.194Z,61.77
2019-03-29T07:20:33.629Z,60.55
2019-03-29T07:23:04.863Z,60.43
2019-03-29T07:25:44.846Z,60.35
2019-03-29T07:28:26.101Z,59.35
2019-03-29T07:30:59.342Z,58.50
2019-03-29T07:33:44.095Z,57.19
2019-03-29T07:36:17.214Z,57.25
2019-03-29T07:38:48.487Z,57.38
2019-03-29T07:41:32.243Z,56.34
2019-03-29T07:44:05.634Z,56.98
2019-03-29T07:46:36.796Z,57.76
2019-03-29T07:49:08.049Z,56.04
2019-03-29T07:51:39.219Z,56.38
2019-03-29T07:54:20.355Z,56.59
2019-03-29T07:56:51.671Z,55.84
2019-03-29T07:59:23.352Z,56.79
2019-03-29T08:01:59.878Z,55.76
2019-03-29T08:04:39.328Z,56.19
2019-03-29T08:07:10.547Z,55.49
2019-03-29T08:09:43.720Z,56.26
2019-03-29T08:12:15.613Z,55.04
2019-03-29T08:14:49.239Z,55.40
2019-03-29T08:17:31.363Z,54.68
2019-03-29T08:20:36.428Z,55.04
2019-03-29T08:22:46.861Z,54.71
2019-03-29T08:25:18.126Z,54.71
2019-03-29T08:27:50.399Z,55.47
2019-03-29T08:30:21.631Z,54.77
2019-03-29T08:32:52.776Z,54.40
2019-03-29T08:35:24.973Z,54.73
2019-03-29T08:37:57.232Z,55.18
2019-03-29T08:40:28.381Z,54.92
2019-03-29T08:42:59.629Z,54.13
2019-03-29T08:45:30.763Z,54.33
2019-03-29T08:48:02.363Z,54.12
2019-03-29T08:50:33.585Z,53.48
2019-03-29T08:53:04.727Z,52.98
2019-03-29T08:55:45.607Z,52.72
2019-03-29T08:58:08.975Z,53.03
2019-03-29T09:00:52.244Z,52.36
2019-03-29T09:03:23.441Z,51.63
2019-03-29T09:06:13.758Z,50.89
2019-03-29T09:08:46.045Z,51.27
2019-03-29T09:11:17.228Z,51.12
2019-03-29T09:13:48.390Z,50.86
2019-03-29T09:16:19.649Z,51.13
2019-03-29T09:18:50.834Z,50.88
2019-03-29T09:21:22.281Z,50.12
2019-03-29T09:23:53.614Z,50.33
2019-03-29T09:26:42.862Z,49.99
2019-03-29T09:29:15.211Z,50.28
2019-03-29T09:31:46.373Z,50.10
2019-03-29T09:34:17.675Z,49.03
2019-03-29T09:36:48.803Z,47.95
2019-03-29T09:39:20.037Z,49.19
2019-03-29T09:41:51.261Z,48.74
2019-03-29T09:44:28.348Z,49.00
2019-03-29T09:46:59.670Z,47.52
2019-03-29T09:49:42.220Z,48.83
2019-03-29T09:52:35.249Z,47.52
2019-03-29T09:55:29.003Z,48.42
2019-03-29T09:58:00.328Z,47.45
2019-03-29T10:00:35.898Z,47.48
2019-03-29T10:03:07.237Z,47.57
2019-03-29T10:05:38.404Z,46.73
2019-03-29T10:08:18.625Z,46.91
2019-03-29T10:10:49.792Z,46.64
2019-03-29T10:13:27.080Z,45.85
2019-03-29T10:15:58.385Z,46.08
2019-03-29T10:18:37.416Z,45.80
2019-03-29T10:21:08.598Z,45.84
2019-03-29T10:23:41.894Z,45.75
2019-03-29T10:26:18.068Z,46.17
2019-03-29T10:28:49.216Z,45.22
2019-03-29T10:34:44.317Z,44.47
2019-03-29T10:37:34.059Z,44.02
2019-03-29T10:40:05.722Z,44.18
2019-03-29T10:42:39.787Z,43.25
2019-03-29T10:45:09.849Z,42.78
2019-03-29T10:47:44.067Z,43.18
2019-03-29T10:50:14.985Z,43.11
2019-03-29T10:52:46.169Z,43.38
2019-03-29T10:55:22.439Z,42.62
2019-03-29T10:57:55.537Z,43.19
2019-03-29T11:00:37.457Z,42.67
2019-03-29T11:03:20.103Z,42.39
2019-03-29T11:05:51.333Z,42.38
2019-03-29T11:08:22.510Z,42.56
2019-03-29T11:10:53.693Z,42.02
2019-03-29T11:13:24.896Z,42.32
2019-03-29T11:15:56.012Z,42.00
2019-03-29T11:18:27.076Z,42.33
2019-03-29T11:21:01.348Z,42.03
2019-03-29T11:23:38.478Z,41.99
2019-03-29T11:26:11.666Z,42.02
2019-03-29T11:28:42.960Z,41.19
2019-03-29T11:31:14.106Z,41.65
2019-03-29T11:33:45.246Z,41.58
2019-03-29T11:36:17.038Z,41.62
2019-03-29T11:38:52.208Z,41.25
2019-03-29T11:41:23.406Z,40.41
2019-03-29T11:43:54.445Z,40.19
2019-03-29T11:46:25.619Z,40.58
2019-03-29T11:48:56.743Z,41.06
2019-03-29T11:51:31.208Z,40.71
2019-03-29T11:54:02.477Z,39.89
2019-03-29T11:57:03.756Z,39.58
2019-03-29T11:59:40.729Z,39.72
2019-03-29T12:02:31.629Z,39.62
2019-03-29T12:05:08.000Z,38.59
2019-03-29T12:07:39.194Z,38.72
2019-03-29T12:10:10.398Z,38.55
2019-03-29T12:12:41.606Z,38.31
2019-03-29T12:15:12.938Z,38.25
2019-03-29T12:17:44.056Z,37.39
2019-03-29T12:20:15.337Z,36.99
2019-03-29T12:22:46.551Z,38.21
2019-03-29T12:25:17.910Z,38.00
2019-03-29T12:27:49.013Z,38.76
2019-03-29T12:30:31.129Z,38.41
2019-03-29T12:32:53.538Z,37.99
2019-03-29T12:35:44.863Z,37.37
2019-03-29T12:38:37.183Z,37.68
2019-03-29T12:41:08.355Z,38.21
2019-03-29T12:43:39.475Z,38.49
2019-03-29T12:46:16.174Z,38.07
2019-03-29T12:48:50.248Z,39.21
2019-03-29T12:51:21.265Z,38.33
2019-03-29T12:53:52.398Z,37.85
2019-03-29T12:56:23.770Z,37.63
2019-03-29T12:58:54.897Z,38.73
2019-03-29T13:01:38.420Z,38.68
2019-03-29T13:03:58.902Z,38.69
2019-03-29T13:06:42.178Z,37.36
2019-03-29T13:09:13.418Z,37.75
2019-03-29T13:12:00.745Z,38.83
2019-03-29T13:14:32.126Z,38.54
2019-03-29T13:17:03.362Z,38.39
2019-03-29T13:19:34.479Z,38.45
2019-03-29T13:22:06.627Z,39.29
2019-03-29T13:24:37.807Z,38.85
2019-03-29T13:27:09.174Z,38.85
2019-03-29T13:29:40.390Z,39.26
2019-03-29T13:32:11.550Z,38.74
2019-03-29T13:34:45.890Z,38.52
2019-03-29T13:37:38.754Z,39.03
2019-03-29T13:40:10.746Z,38.84
2019-03-29T13:42:54.222Z,39.40
2019-03-29T13:45:27.851Z,40.30
2019-03-29T13:47:59.512Z,40.01
2019-03-29T13:50:31.962Z,39.99
2019-03-29T13:53:03.154Z,39.81
2019-03-29T13:55:34.577Z,40.03
2019-03-29T13:58:05.913Z,39.74
2019-03-29T14:00:43.772Z,40.05
2019-03-29T14:03:15.115Z,38.99
2019-03-29T14:05:48.492Z,39.45
2019-03-29T14:08:19.800Z,39.15
2019-03-29T14:10:51.056Z,38.91
2019-03-29T14:13:28.239Z,39.10
2019-03-29T14:16:04.642Z,40.07
2019-03-29T14:18:37.493Z,39.04
2019-03-29T14:21:08.727Z,39.08
2019-03-29T14:23:40.913Z,38.96
2019-03-29T14:26:16.147Z,39.24
2019-03-29T14:28:46.081Z,39.64
2019-03-29T14:31:23.833Z,38.79
2019-03-29T14:34:06.088Z,38.77
2019-03-29T14:36:44.805Z,38.55
2019-03-29T14:39:31.212Z,38.83
2019-03-29T14:42:05.992Z,38.86
2019-03-29T14:44:52.288Z,38.68
2019-03-29T14:47:20.703Z,38.80
2019-03-29T14:49:52.982Z,38.11
2019-03-29T14:52:24.241Z,38.09
2019-03-29T14:54:56.689Z,38.65
2019-03-29T14:57:28.004Z,38.97
2019-03-29T14:59:59.230Z,39.20
2019-03-29T15:02:30.531Z,39.20
2019-03-29T15:05:01.908Z,39.08
2019-03-29T15:07:34.275Z,39.62
2019-03-29T15:10:10.955Z,39.93
2019-03-29T15:12:46.388Z,38.97
2019-03-29T15:15:17.715Z,38.95
2019-03-29T15:18:00.122Z,39.59
2019-03-29T15:20:32.305Z,39.11
2019-03-29T15:23:03.631Z,39.21
2019-03-29T15:25:40.779Z,39.49
2019-03-29T15:28:12.228Z,39.46
2019-03-29T15:30:45.602Z,39.43
2019-03-29T15:33:26.468Z,39.43
2019-03-29T15:35:59.345Z,39.51
2019-03-29T15:38:34.687Z,39.17
2019-03-29T15:41:10.391Z,39.11
2019-03-29T15:43:42.334Z,39.37
2019-03-29T15:46:18.172Z,39.47
2019-03-29T15:48:49.789Z,39.66
2019-03-29T15:51:33.332Z,40.07
2019-03-29T15:54:04.540Z,40.13
2019-03-29T15:56:41.899Z,39.84
2019-03-29T15:59:16.431Z,40.08
2019-03-29T16:01:48.458Z,40.01
2019-03-29T16:04:30.227Z,39.25
2019-03-29T16:07:09.799Z,39.15
2019-03-29T16:09:42.337Z,39.71
2019-03-29T16:12:13.932Z,39.74
2019-03-29T16:14:47.217Z,39.05
2019-03-29T16:17:20.426Z,39.79
2019-03-29T16:19:51.746Z,39.58
2019-03-29T16:22:24.065Z,39.82
2019-03-29T16:24:55.431Z,40.31
2019-03-29T16:27:30.744Z,39.74
2019-03-29T16:30:04.437Z,39.53
2019-03-29T16:32:37.025Z,39.72
2019-03-29T16:35:13.693Z,39.75
2019-03-29T16:37:56.528Z,40.15
2019-03-29T16:40:21.752Z,40.34
2019-03-29T16:42:55.151Z,39.82
2019-03-29T16:45:30.834Z,40.42
2019-03-29T16:48:30.398Z,40.62
2019-03-29T16:51:02.147Z,39.84
2019-03-29T16:53:33.548Z,39.88
2019-03-29T16:56:12.089Z,39.61
2019-03-29T16:58:45.274Z,40.93
2019-03-29T17:01:18.674Z,40.64
2019-03-29T17:03:50.090Z,40.73
2019-03-29T17:06:22.320Z,40.96
2019-03-29T17:08:53.837Z,41.37
2019-03-29T17:11:31.199Z,40.88
2019-03-29T17:14:02.918Z,41.05
2019-03-29T17:16:40.236Z,41.51
2019-03-29T17:19:15.715Z,41.25
2019-03-29T17:21:49.399Z,40.33
2019-03-29T17:24:22.084Z,40.30
2019-03-29T17:26:53.499Z,40.73
2019-03-29T17:29:24.811Z,41.51
2019-03-29T17:31:56.156Z,40.75
2019-03-29T17:34:34.105Z,41.53
2019-03-29T17:37:05.394Z,42.43
2019-03-29T17:39:36.670Z,43.23
2019-03-29T17:42:08.104Z,43.36
2019-03-29T17:44:46.192Z,42.77
2019-03-29T17:47:20.767Z,44.18
2019-03-29T17:49:59.073Z,44.39
2019-03-29T17:52:30.372Z,43.80
2019-03-29T17:55:02.632Z,44.51
2019-03-29T17:57:33.843Z,44.81
2019-03-29T18:00:08.543Z,45.76
2019-03-29T18:02:40.915Z,46.21
2019-03-29T18:05:18.293Z,46.35
2019-03-29T18:07:51.809Z,46.75
2019-03-29T18:10:32.031Z,46.92
2019-03-29T18:13:04.419Z,46.81
2019-03-29T18:15:48.066Z,47.41
2019-03-29T18:18:25.319Z,47.94
2019-03-29T18:20:58.093Z,48.19
2019-03-29T18:23:30.245Z,48.07
2019-03-29T18:26:01.924Z,48.33
2019-03-29T18:28:39.276Z,48.15
2019-03-29T18:31:18.069Z,48.52
2019-03-29T18:33:54.330Z,48.68
2019-03-29T18:36:26.186Z,49.64
2019-03-29T18:38:58.821Z,49.55
2019-03-29T18:41:32.064Z,50.37
2019-03-29T18:44:04.582Z,52.04
2019-03-29T18:46:44.618Z,51.93
2019-03-29T18:49:11.560Z,51.44
2019-03-29T18:51:44.370Z,50.38
2019-03-29T18:54:18.224Z,50.59
2019-03-29T18:56:51.062Z,51.00
2019-03-29T18:59:24.327Z,51.51
2019-03-29T19:02:01.330Z,52.41
2019-03-29T19:04:35.286Z,51.69
2019-03-29T19:07:11.412Z,51.30
2019-03-29T19:09:46.246Z,51.06
2019-03-29T19:12:21.461Z,51.74
2019-03-29T19:14:53.203Z,52.05
2019-03-29T19:17:27.890Z,52.49
2019-03-29T19:20:03.954Z,52.47
2019-03-29T19:22:37.498Z,52.53
2019-03-29T19:25:10.172Z,52.78
2019-03-29T19:27:44.474Z,53.45
2019-03-29T19:30:17.579Z,53.04
2019-03-29T19:32:53.986Z,53.40
2019-03-29T19:35:25.722Z,53.74
2019-03-29T19:37:57.465Z,53.79
2019-03-29T19:40:28.826Z,54.10
2019-03-29T19:43:00.477Z,54.34
2019-03-29T19:45:38.061Z,54.85
2019-03-29T19:48:10.644Z,55.14
2019-03-29T19:50:43.040Z,55.25
2019-03-29T19:53:14.935Z,55.96
2019-03-29T19:55:47.748Z,56.46
2019-03-29T19:58:19.255Z,56.99
2019-03-29T20:00:50.960Z,56.43
2019-03-29T20:03:27.223Z,56.67
2019-03-29T20:05:58.672Z,57.23
2019-03-29T20:08:34.011Z,58.07
2019-03-29T20:11:05.469Z,58.16
2019-03-29T20:13:36.919Z,58.13
2019-03-29T20:16:08.497Z,58.30
2019-03-29T20:18:50.097Z,57.47
2019-03-29T20:21:21.524Z,57.79
2019-03-29T20:23:53.085Z,57.81
2019-03-29T20:26:26.480Z,58.30
2019-03-29T20:28:58.030Z,58.49
2019-03-29T20:31:29.382Z,58.04
2019-03-29T20:34:13.437Z,58.20
2019-03-29T20:36:45.076Z,58.59
2019-03-29T20:39:17.657Z,59.09
2019-03-29T20:41:49.204Z,59.15
2019-03-29T20:44:20.648Z,59.03
2019-03-29T20:46:52.092Z,59.19
2019-03-29T20:49:28.588Z,59.31
2019-03-29T20:51:59.912Z,58.85
2019-03-29T20:54:33.308Z,58.28
2019-03-29T20:57:04.583Z,59.00
2019-03-29T20:59:36.593Z,58.91
2019-03-29T21:02:09.908Z,59.09
2019-03-29T21:04:41.612Z,59.79
2019-03-29T21:07:14.947Z,59.76
2019-03-29T21:09:47.766Z,59.64
2019-03-29T21:12:18.878Z,59.29
2019-03-29T21:14:54.935Z,59.56
2019-03-29T21:17:36.742Z,59.99
2019-03-29T21:20:08.902Z,59.95
2019-03-29T21:22:40.350Z,60.27
2019-03-29T21:25:13.318Z,60.10
2019-03-29T21:27:45.599Z,59.54
2019-03-29T21:30:18.256Z,59.68
2019-03-29T21:32:50.524Z,59.80
2019-03-29T21:35:22.122Z,59.97
2019-03-29T21:37:56.488Z,60.12
2019-03-29T21:40:31.861Z,60.16
2019-03-29T21:43:13.084Z,59.69
2019-03-29T21:45:46.670Z,60.33
2019-03-29T21:48:28.716Z,60.15
2019-03-29T21:50:51.103Z,60.27
2019-03-29T21:53:27.219Z,60.43
2019-03-29T21:56:04.624Z,60.67
2019-03-29T21:58:36.093Z,60.92
2019-03-29T22:01:07.620Z,60.49
2019-03-29T22:03:38.804Z,60.71
2019-03-29T22:06:10.194Z,60.35
2019-03-29T22:08:41.473Z,61.05
2019-03-29T22:11:13.790Z,60.84
2019-03-29T22:13:45.289Z,60.85
2019-03-29T22:16:16.943Z,60.77
2019-03-29T22:18:48.415Z,61.20
2019-03-29T22:21:19.816Z,61.06
2019-03-29T22:23:50.995Z,61.09
2019-03-29T22:26:23.241Z,61.54
2019-03-29T22:28:54.549Z,60.95
2019-03-29T22:31:28.010Z,61.05
2019-03-29T22:34:00.650Z,61.11
2019-03-29T22:36:40.242Z,61.10
2019-03-29T22:39:13.231Z,61.43
2019-03-29T22:41:47.465Z,61.11
2019-03-29T22:44:23.906Z,61.26
2019-03-29T22:47:02.008Z,61.31
2019-03-29T22:49:35.225Z,61.50
2019-03-29T22:52:07.280Z,61.56
2019-03-29T22:54:38.421Z,61.62
2019-03-29T22:57:09.748Z,61.43
2019-03-29T22:59:40.906Z,61.41
2019-03-29T23:02:12.307Z,61.56
2019-03-29T23:04:43.870Z,61.76
2019-03-29T23:07:15.067Z,61.43
2019-03-29T23:09:56.206Z,62.06
2019-03-29T23:12:28.413Z,61.94
2019-03-29T23:15:00.730Z,62.39
2019-03-29T23:17:32.376Z,62.28
2019-03-29T23:20:04.127Z,62.18
2019-03-29T23:22:37.994Z,62.05
2019-03-29T23:25:10.912Z,61.59
2019-03-29T23:27:42.228Z,62.14
2019-03-29T23:30:14.051Z,61.74
2019-03-29T23:32:45.806Z,61.44
2019-03-29T23:35:18.079Z,61.52
2019-03-29T23:37:50.008Z,61.39
2019-03-29T23:40:22.833Z,61.42
2019-03-29T23:42:54.044Z,62.11
2019-03-29T23:45:25.259Z,62.54
2019-03-29T23:47:57.497Z,62.81
2019-03-29T23:50:28.622Z,62.67
2019-03-29T23:53:00.844Z,62.57
2019-03-29T23:55:32.120Z,62.92
2019-03-29T23:58:03.565Z,63.05
